Terminal Aerodrome Forecast
Issued by NWS Tampa Bay Area, FL

Home | Current Version | Previous Version | Text Only | Print | Product List | Glossary On
Versions: 1 2 3 4 5 6 7 8 9 10 11 12
000
FTUS42 KTBW 011742
TAFFMY
TAF
KFMY 011742Z 0118/0218 26007KT P6SM VCTS FEW025CB SCT035 BKN250
      TEMPO 0120/0124 VRB10G20KT 4SM TSRA SCT025CB BKN030
     FM020300 05004KT P6SM SCT250
     FM021600 16004KT P6SM VCSH FEW030 SCT250=

USA.gov is the U.S. government's official web portal to all federal, state and local government web resources and services.